createdAt,value
2023-05-09T00:00:04.276Z,5.70
2023-05-09T00:00:17.175Z,5.70
2023-05-09T00:00:31.367Z,5.90
2023-05-09T00:00:42.089Z,5.50
2023-05-09T00:00:55.268Z,5.60
2023-05-09T00:01:06.003Z,5.90
2023-05-09T00:01:19.202Z,5.90
2023-05-09T00:01:30.934Z,5.60
2023-05-09T00:01:41.683Z,5.70
2023-05-09T00:01:52.453Z,5.80
2023-05-09T00:02:03.207Z,5.80
2023-05-09T00:02:13.982Z,5.80
2023-05-09T00:02:26.486Z,6.10
2023-05-09T00:02:38.761Z,6.30
2023-05-09T00:02:51.296Z,6.30
2023-05-09T00:03:03.171Z,6.10
2023-05-09T00:03:14.848Z,6.00
2023-05-09T00:03:27.225Z,6.00
2023-05-09T00:03:39.671Z,5.50
2023-05-09T00:03:52.390Z,5.60
2023-05-09T00:04:04.238Z,5.40
2023-05-09T00:04:16.697Z,5.40
2023-05-09T00:04:28.436Z,5.80
2023-05-09T00:04:40.188Z,6.00
2023-05-09T00:04:53.380Z,6.00
2023-05-09T00:05:04.135Z,5.80
2023-05-09T00:05:16.695Z,5.50
2023-05-09T00:05:27.518Z,5.60
2023-05-09T00:05:39.247Z,5.80
2023-05-09T00:05:49.937Z,6.10
2023-05-09T00:06:02.156Z,6.20
2023-05-09T00:06:14.552Z,6.10
2023-05-09T00:06:25.387Z,5.50
2023-05-09T00:06:36.209Z,5.50
2023-05-09T00:06:47.897Z,6.10
2023-05-09T00:06:59.391Z,6.40
2023-05-09T00:07:10.103Z,6.10
2023-05-09T00:07:21.798Z,6.20
2023-05-09T00:07:34.270Z,6.00
2023-05-09T00:07:46.479Z,6.10
2023-05-09T00:07:59.711Z,6.00
2023-05-09T00:08:10.465Z,5.90
2023-05-09T00:08:21.231Z,5.80
2023-05-09T00:08:31.987Z,5.80
2023-05-09T00:08:44.440Z,5.80
2023-05-09T00:08:56.137Z,6.00
2023-05-09T00:09:06.897Z,6.10
2023-05-09T00:09:17.581Z,6.00
2023-05-09T00:09:28.297Z,5.40
2023-05-09T00:09:40.006Z,5.50
2023-05-09T00:09:51.689Z,5.70
2023-05-09T00:10:02.443Z,6.00
2023-05-09T00:10:14.232Z,6.10
2023-05-09T00:10:24.957Z,5.90
2023-05-09T00:10:35.731Z,5.70
2023-05-09T00:10:46.402Z,5.80
2023-05-09T00:10:57.151Z,5.80
2023-05-09T00:11:09.529Z,6.00
2023-05-09T00:11:21.699Z,5.90
2023-05-09T00:11:32.399Z,5.90
2023-05-09T00:11:43.128Z,6.00
2023-05-09T00:11:54.824Z,5.70
2023-05-09T00:12:05.557Z,5.80
2023-05-09T00:12:16.269Z,5.60
2023-05-09T00:12:27.023Z,5.80
2023-05-09T00:12:37.734Z,5.60
2023-05-09T00:12:50.702Z,5.80
2023-05-09T00:13:01.443Z,6.00
2023-05-09T00:13:12.250Z,6.10
2023-05-09T00:13:23.048Z,5.60
2023-05-09T00:13:34.758Z,5.60
2023-05-09T00:13:45.421Z,5.70
2023-05-09T00:13:56.140Z,5.90
2023-05-09T00:14:08.558Z,5.90
2023-05-09T00:14:19.287Z,5.30
2023-05-09T00:14:30.009Z,5.40
2023-05-09T00:14:40.754Z,5.70
2023-05-09T00:14:52.978Z,6.30
2023-05-09T00:15:03.725Z,6.10
2023-05-09T00:15:14.630Z,6.00
2023-05-09T00:15:25.460Z,6.20
2023-05-09T00:15:37.878Z,6.50
2023-05-09T00:15:49.818Z,6.10
2023-05-09T00:16:02.122Z,5.90
2023-05-09T00:16:12.907Z,5.90
2023-05-09T00:16:23.609Z,5.80
2023-05-09T00:16:34.332Z,5.80
2023-05-09T00:16:45.034Z,6.10
2023-05-09T00:16:56.801Z,5.90
2023-05-09T00:17:07.475Z,5.90
2023-05-09T00:17:18.222Z,5.70
2023-05-09T00:17:28.991Z,5.50
2023-05-09T00:17:39.685Z,5.80
2023-05-09T00:17:51.405Z,5.80
2023-05-09T00:18:03.882Z,5.30
2023-05-09T00:18:14.649Z,5.50
2023-05-09T00:18:26.825Z,5.50
2023-05-09T00:18:39.257Z,5.50
2023-05-09T00:18:51.009Z,5.50
2023-05-09T00:19:01.782Z,5.60
2023-05-09T00:19:13.468Z,5.70
2023-05-09T00:19:24.392Z,5.60
2023-05-09T00:19:35.181Z,5.40
2023-05-09T00:19:45.960Z,5.80
2023-05-09T00:19:56.653Z,5.60
2023-05-09T00:20:08.345Z,6.10
2023-05-09T00:20:20.079Z,6.30
2023-05-09T00:20:30.818Z,7.00
2023-05-09T00:20:41.578Z,6.40
2023-05-09T00:20:53.293Z,6.20
2023-05-09T00:21:04.034Z,5.80
2023-05-09T00:21:16.442Z,5.70
2023-05-09T00:21:27.141Z,5.80
2023-05-09T00:21:37.885Z,6.00
2023-05-09T00:21:50.326Z,6.00
2023-05-09T00:22:02.771Z,5.70
2023-05-09T00:22:15.191Z,5.50
2023-05-09T00:22:25.904Z,5.10
2023-05-09T00:22:37.559Z,5.20
2023-05-09T00:22:49.767Z,5.30
2023-05-09T00:23:01.498Z,5.40
2023-05-09T00:23:12.198Z,5.60
2023-05-09T00:23:24.775Z,5.90
2023-05-09T00:23:35.523Z,5.90
2023-05-09T00:23:46.263Z,5.50
2023-05-09T00:23:58.643Z,5.60
2023-05-09T00:24:10.309Z,5.70
2023-05-09T00:24:21.049Z,5.80
2023-05-09T00:24:31.758Z,5.50
2023-05-09T00:24:43.502Z,5.80
2023-05-09T00:24:54.268Z,5.80
2023-05-09T00:25:05.118Z,5.90
2023-05-09T00:25:17.645Z,5.80
2023-05-09T00:25:28.374Z,5.90
2023-05-09T00:25:39.093Z,5.80
2023-05-09T00:25:51.581Z,5.70
2023-05-09T00:26:02.293Z,5.90
2023-05-09T00:26:14.872Z,6.10
2023-05-09T00:26:26.564Z,6.00
2023-05-09T00:26:37.262Z,5.80
2023-05-09T00:26:48.962Z,5.80
2023-05-09T00:26:59.688Z,6.10
2023-05-09T00:27:10.462Z,5.80
2023-05-09T00:27:22.154Z,5.50
2023-05-09T00:27:32.856Z,5.60
2023-05-09T00:27:43.558Z,5.80
2023-05-09T00:27:56.026Z,5.70
2023-05-09T00:28:06.773Z,5.90
2023-05-09T00:28:17.506Z,6.00
2023-05-09T00:28:28.207Z,6.10
2023-05-09T00:28:39.933Z,6.10
2023-05-09T00:28:50.749Z,6.00
2023-05-09T00:29:04.409Z,5.80
2023-05-09T00:29:17.106Z,5.90
2023-05-09T00:29:27.813Z,5.40
2023-05-09T00:29:39.533Z,5.30
2023-05-09T00:29:52.728Z,5.40
2023-05-09T00:30:04.405Z,5.20
2023-05-09T00:30:16.332Z,5.60
2023-05-09T00:30:27.988Z,5.40
2023-05-09T00:30:40.401Z,5.50
2023-05-09T00:30:52.826Z,5.60
2023-05-09T00:31:05.273Z,5.90
2023-05-09T00:31:16.009Z,5.80
2023-05-09T00:31:29.222Z,5.50
2023-05-09T00:31:40.012Z,5.70
2023-05-09T00:31:51.758Z,5.70
2023-05-09T00:32:03.461Z,5.40
2023-05-09T00:32:15.182Z,5.20
2023-05-09T00:32:25.932Z,5.30
2023-05-09T00:32:37.618Z,5.30
2023-05-09T00:32:48.334Z,6.00
2023-05-09T00:33:00.731Z,6.00
2023-05-09T00:33:13.639Z,5.40
2023-05-09T00:33:25.342Z,5.50
2023-05-09T00:33:36.979Z,5.50
2023-05-09T00:33:48.691Z,5.80
2023-05-09T00:34:00.387Z,5.40
2023-05-09T00:34:11.103Z,5.50
2023-05-09T00:34:21.822Z,5.50
2023-05-09T00:34:35.471Z,5.50
2023-05-09T00:34:46.148Z,5.20
2023-05-09T00:34:56.856Z,5.10
2023-05-09T00:35:09.285Z,5.50
2023-05-09T00:35:19.963Z,5.70
2023-05-09T00:35:30.735Z,5.70
2023-05-09T00:35:41.498Z,5.50
2023-05-09T00:35:53.199Z,5.40
2023-05-09T00:36:04.912Z,5.40
2023-05-09T00:36:16.563Z,4.90
2023-05-09T00:36:27.325Z,5.10
2023-05-09T00:36:38.990Z,5.40
2023-05-09T00:36:49.767Z,5.30
2023-05-09T00:37:00.515Z,5.40
2023-05-09T00:37:12.224Z,5.20
2023-05-09T00:37:23.973Z,5.50
2023-05-09T00:37:34.702Z,5.70
2023-05-09T00:37:47.223Z,5.50
2023-05-09T00:37:58.010Z,5.30
2023-05-09T00:38:08.736Z,5.50
2023-05-09T00:38:19.452Z,5.90
2023-05-09T00:38:31.131Z,6.10
2023-05-09T00:38:41.854Z,5.90
2023-05-09T00:38:52.577Z,5.30
2023-05-09T00:39:03.332Z,5.50
2023-05-09T00:39:14.012Z,5.50
2023-05-09T00:39:25.752Z,5.40
2023-05-09T00:39:36.477Z,5.30
2023-05-09T00:39:48.219Z,5.50
2023-05-09T00:39:58.927Z,5.50
2023-05-09T00:40:09.757Z,5.40
2023-05-09T00:40:20.540Z,5.80
2023-05-09T00:40:32.265Z,5.80
2023-05-09T00:40:45.426Z,5.30
2023-05-09T00:40:56.143Z,5.40
2023-05-09T00:41:08.544Z,5.50
2023-05-09T00:41:20.225Z,6.00
2023-05-09T00:41:30.972Z,6.20
2023-05-09T00:41:41.752Z,5.90
2023-05-09T00:41:54.169Z,5.60
2023-05-09T00:42:06.589Z,5.30
2023-05-09T00:42:17.327Z,5.20
2023-05-09T00:42:29.771Z,5.60
2023-05-09T00:42:42.682Z,6.30
2023-05-09T00:42:55.062Z,5.80
2023-05-09T00:43:07.489Z,5.80
2023-05-09T00:43:18.179Z,5.30
2023-05-09T00:43:28.868Z,5.30
2023-05-09T00:43:40.582Z,5.20
2023-05-09T00:43:51.339Z,6.00
2023-05-09T00:44:03.790Z,5.80
2023-05-09T00:44:16.186Z,6.20
2023-05-09T00:44:27.860Z,5.50
2023-05-09T00:44:39.548Z,5.80
2023-05-09T00:44:52.706Z,5.90
2023-05-09T00:45:03.444Z,6.00
2023-05-09T00:45:15.305Z,5.90
2023-05-09T00:45:27.155Z,5.60
2023-05-09T00:45:37.870Z,5.50
2023-05-09T00:45:49.547Z,5.60
2023-05-09T00:46:00.282Z,5.90
2023-05-09T00:46:11.935Z,5.90
2023-05-09T00:46:24.138Z,5.90
2023-05-09T00:46:35.844Z,5.60
2023-05-09T00:46:47.611Z,5.40
2023-05-09T00:46:58.335Z,5.40
2023-05-09T00:47:11.512Z,5.50
2023-05-09T00:47:23.251Z,5.50
2023-05-09T00:47:36.503Z,5.50
2023-05-09T00:47:47.326Z,5.10
2023-05-09T00:47:58.083Z,5.10
2023-05-09T00:48:08.791Z,5.20
2023-05-09T00:48:20.545Z,5.60
2023-05-09T00:48:32.269Z,5.80
2023-05-09T00:48:42.956Z,6.00
2023-05-09T00:48:53.682Z,5.80
2023-05-09T00:49:04.441Z,5.50
2023-05-09T00:49:16.891Z,5.50
2023-05-09T00:49:28.571Z,5.50
2023-05-09T00:49:40.263Z,5.50
2023-05-09T00:49:50.984Z,5.70
2023-05-09T00:50:03.666Z,5.50
2023-05-09T00:50:15.852Z,5.40
2023-05-09T00:50:28.298Z,5.40
2023-05-09T00:50:39.935Z,5.30
2023-05-09T00:50:50.649Z,5.30
2023-05-09T00:51:01.519Z,5.10
2023-05-09T00:51:13.280Z,5.50
2023-05-09T00:51:24.037Z,5.80
2023-05-09T00:51:34.735Z,5.70
2023-05-09T00:51:47.124Z,5.40
2023-05-09T00:51:59.551Z,5.40
2023-05-09T00:52:11.963Z,6.00
2023-05-09T00:52:23.907Z,5.90
2023-05-09T00:52:34.700Z,5.40
2023-05-09T00:52:47.130Z,5.70
2023-05-09T00:52:58.855Z,5.70
2023-05-09T00:53:09.611Z,5.40
2023-05-09T00:53:20.338Z,5.50
2023-05-09T00:53:32.767Z,5.30
2023-05-09T00:53:43.523Z,5.40
2023-05-09T00:53:54.242Z,5.50
2023-05-09T00:54:08.484Z,5.70
2023-05-09T00:54:20.794Z,5.60
2023-05-09T00:54:31.584Z,5.70
2023-05-09T00:54:42.375Z,5.80
2023-05-09T00:54:54.584Z,5.50
2023-05-09T00:55:05.441Z,5.70
2023-05-09T00:55:16.426Z,5.50
2023-05-09T00:55:29.029Z,5.60
2023-05-09T00:55:39.712Z,5.70
2023-05-09T00:55:51.418Z,5.70
2023-05-09T00:56:04.092Z,5.30
2023-05-09T00:56:15.830Z,5.40
2023-05-09T00:56:28.215Z,5.50
2023-05-09T00:56:38.953Z,5.50
2023-05-09T00:56:50.639Z,5.60
2023-05-09T00:57:01.381Z,5.40
2023-05-09T00:57:14.530Z,5.30
2023-05-09T00:57:25.292Z,5.40
2023-05-09T00:57:36.108Z,5.80
2023-05-09T00:57:46.806Z,6.00
2023-05-09T00:57:57.527Z,5.90
2023-05-09T00:58:08.237Z,5.80
2023-05-09T00:58:18.951Z,5.70
2023-05-09T00:58:29.710Z,5.40
2023-05-09T00:58:40.412Z,5.50
2023-05-09T00:58:51.120Z,5.70
2023-05-09T00:59:02.818Z,6.20
2023-05-09T00:59:16.275Z,6.10
2023-05-09T00:59:28.094Z,5.70
2023-05-09T00:59:40.570Z,5.50
2023-05-09T00:59:52.232Z,5.30
2023-05-09T01:00:02.947Z,5.20
2023-05-09T01:00:14.576Z,5.30
2023-05-09T01:00:25.290Z,5.40
2023-05-09T01:00:36.017Z,5.30
2023-05-09T01:00:46.736Z,5.30
2023-05-09T01:00:58.420Z,5.20
2023-05-09T01:01:11.659Z,5.50
2023-05-09T01:01:24.041Z,5.50
2023-05-09T01:01:34.769Z,5.80
2023-05-09T01:01:45.581Z,5.90
2023-05-09T01:01:56.302Z,5.50
2023-05-09T01:02:06.999Z,5.30
2023-05-09T01:02:17.774Z,5.20
2023-05-09T01:02:30.223Z,5.00
2023-05-09T01:02:41.982Z,5.20
2023-05-09T01:02:53.936Z,5.00
2023-05-09T01:03:05.804Z,5.30
2023-05-09T01:03:16.617Z,5.50
2023-05-09T01:03:29.165Z,5.50
2023-05-09T01:03:42.216Z,5.60
2023-05-09T01:03:54.634Z,5.50
2023-05-09T01:04:07.008Z,5.30
2023-05-09T01:04:21.248Z,5.70
2023-05-09T01:04:31.950Z,5.70
2023-05-09T01:04:42.709Z,5.70
2023-05-09T01:04:55.129Z,5.50
2023-05-09T01:05:06.812Z,5.00
2023-05-09T01:05:17.652Z,4.80
2023-05-09T01:05:28.423Z,5.00
2023-05-09T01:05:40.667Z,5.50
2023-05-09T01:05:52.380Z,5.40
2023-05-09T01:06:04.556Z,5.50
2023-05-09T01:06:16.228Z,5.40
2023-05-09T01:06:26.958Z,5.40
2023-05-09T01:06:38.625Z,5.40
2023-05-09T01:06:50.885Z,5.60
2023-05-09T01:07:01.563Z,5.70
2023-05-09T01:07:12.349Z,5.80
2023-05-09T01:07:24.080Z,5.60
2023-05-09T01:07:37.267Z,5.90
2023-05-09T01:07:48.021Z,5.70
2023-05-09T01:08:00.248Z,5.30
2023-05-09T01:08:12.682Z,5.20
2023-05-09T01:08:25.125Z,5.50
2023-05-09T01:08:36.794Z,5.50
2023-05-09T01:08:48.486Z,5.10
2023-05-09T01:08:59.180Z,5.40
2023-05-09T01:09:10.852Z,5.70
2023-05-09T01:09:21.598Z,5.40
2023-05-09T01:09:33.263Z,4.80
2023-05-09T01:09:44.938Z,5.10
2023-05-09T01:09:55.662Z,5.50
2023-05-09T01:10:06.359Z,5.30
2023-05-09T01:10:18.034Z,5.60
2023-05-09T01:10:30.220Z,5.60
2023-05-09T01:10:43.151Z,5.70
2023-05-09T01:10:53.875Z,5.50
2023-05-09T01:11:04.616Z,5.70
2023-05-09T01:11:17.295Z,5.70
2023-05-09T01:11:29.753Z,5.80
2023-05-09T01:11:40.500Z,5.50
2023-05-09T01:11:51.235Z,5.60
2023-05-09T01:12:04.362Z,5.20
2023-05-09T01:12:15.132Z,5.40
2023-05-09T01:12:28.391Z,5.80
2023-05-09T01:12:41.655Z,5.50
2023-05-09T01:12:52.411Z,5.50
2023-05-09T01:13:04.106Z,5.50
2023-05-09T01:13:15.838Z,5.60
2023-05-09T01:13:28.235Z,5.50
2023-05-09T01:13:38.998Z,5.40
2023-05-09T01:13:51.488Z,5.30
2023-05-09T01:14:04.655Z,5.50
2023-05-09T01:14:17.322Z,5.50
2023-05-09T01:14:28.044Z,5.70
2023-05-09T01:14:38.726Z,6.10
2023-05-09T01:14:52.039Z,5.80
2023-05-09T01:15:02.752Z,5.90
2023-05-09T01:15:14.662Z,5.40
2023-05-09T01:15:28.152Z,5.50
2023-05-09T01:15:39.926Z,5.30
2023-05-09T01:15:50.618Z,5.60
2023-05-09T01:16:03.101Z,5.60
2023-05-09T01:16:15.844Z,5.50
2023-05-09T01:16:29.034Z,5.50
2023-05-09T01:16:39.753Z,5.40
2023-05-09T01:16:52.186Z,5.50
2023-05-09T01:17:03.940Z,5.40
2023-05-09T01:17:14.683Z,5.50
2023-05-09T01:17:27.915Z,5.70
2023-05-09T01:17:38.671Z,5.50
2023-05-09T01:17:50.343Z,5.30
2023-05-09T01:18:03.516Z,4.80
2023-05-09T01:18:14.375Z,5.20
2023-05-09T01:18:26.630Z,5.40
2023-05-09T01:18:37.383Z,5.90
2023-05-09T01:18:49.361Z,5.60
2023-05-09T01:19:01.524Z,5.70
2023-05-09T01:19:12.304Z,5.60
2023-05-09T01:19:23.012Z,5.40
2023-05-09T01:19:33.708Z,5.10
2023-05-09T01:19:44.400Z,5.20
2023-05-09T01:19:56.836Z,5.10
2023-05-09T01:20:07.594Z,5.50
2023-05-09T01:20:19.293Z,5.20
2023-05-09T01:20:31.200Z,4.90
2023-05-09T01:20:41.955Z,4.90
2023-05-09T01:20:54.871Z,5.60
2023-05-09T01:21:06.564Z,6.20
2023-05-09T01:21:17.308Z,6.10
2023-05-09T01:21:29.508Z,6.00
2023-05-09T01:21:41.954Z,6.20
2023-05-09T01:21:52.703Z,6.30
2023-05-09T01:22:03.413Z,6.00
2023-05-09T01:22:14.105Z,6.00
2023-05-09T01:22:26.551Z,5.60
2023-05-09T01:22:37.268Z,5.40
2023-05-09T01:22:47.996Z,5.50
2023-05-09T01:22:58.683Z,5.40
2023-05-09T01:23:11.921Z,5.80
2023-05-09T01:23:24.309Z,5.70
2023-05-09T01:23:36.728Z,5.50
2023-05-09T01:23:47.481Z,5.10
2023-05-09T01:23:58.320Z,5.10
2023-05-09T01:24:10.806Z,5.30
2023-05-09T01:24:22.517Z,5.30
2023-05-09T01:24:34.203Z,5.90
2023-05-09T01:24:46.642Z,6.30
2023-05-09T01:24:58.846Z,6.10
2023-05-09T01:25:12.218Z,5.70
2023-05-09T01:25:24.769Z,5.50
2023-05-09T01:25:37.958Z,5.80
2023-05-09T01:25:48.687Z,5.80
2023-05-09T01:26:01.887Z,5.60
2023-05-09T01:26:14.110Z,5.60
2023-05-09T01:26:26.778Z,5.50
2023-05-09T01:26:38.452Z,5.40
2023-05-09T01:26:50.920Z,5.50
2023-05-09T01:27:05.099Z,5.30
2023-05-09T01:27:16.788Z,4.90
2023-05-09T01:27:27.492Z,4.80
2023-05-09T01:27:38.225Z,4.90
2023-05-09T01:27:48.925Z,5.20
2023-05-09T01:27:59.681Z,5.10
2023-05-09T01:28:10.471Z,5.00
2023-05-09T01:28:21.221Z,5.30
2023-05-09T01:28:31.925Z,5.20
2023-05-09T01:28:43.598Z,4.90
2023-05-09T01:28:56.063Z,4.80
2023-05-09T01:29:08.506Z,5.10
2023-05-09T01:29:20.179Z,5.50
2023-05-09T01:29:30.922Z,5.50
2023-05-09T01:29:41.661Z,5.40
2023-05-09T01:29:53.338Z,5.00
2023-05-09T01:30:04.070Z,4.90
2023-05-09T01:30:15.747Z,5.00
2023-05-09T01:30:28.236Z,5.00
2023-05-09T01:30:40.124Z,5.00
2023-05-09T01:30:50.832Z,4.80
2023-05-09T01:31:03.806Z,4.70
2023-05-09T01:31:16.949Z,5.30
2023-05-09T01:31:29.462Z,5.40
2023-05-09T01:31:40.291Z,5.50
2023-05-09T01:31:52.724Z,5.50
2023-05-09T01:32:04.467Z,5.50
2023-05-09T01:32:16.635Z,5.40
2023-05-09T01:32:28.917Z,5.60
2023-05-09T01:32:43.147Z,5.20
2023-05-09T01:32:56.363Z,4.80
2023-05-09T01:33:10.042Z,4.70
2023-05-09T01:33:20.777Z,5.20
2023-05-09T01:33:31.519Z,4.90
2023-05-09T01:33:43.947Z,4.90
2023-05-09T01:33:56.870Z,4.70
2023-05-09T01:34:09.057Z,5.00
2023-05-09T01:34:21.001Z,4.90
2023-05-09T01:34:33.427Z,5.10
2023-05-09T01:34:45.754Z,5.40
2023-05-09T01:34:57.444Z,5.30
2023-05-09T01:35:08.199Z,5.20
2023-05-09T01:35:18.921Z,5.30
2023-05-09T01:35:31.632Z,5.70
2023-05-09T01:35:42.345Z,5.40
2023-05-09T01:35:53.031Z,5.20
2023-05-09T01:36:05.719Z,5.00
2023-05-09T01:36:19.863Z,5.20
2023-05-09T01:36:31.532Z,5.40
2023-05-09T01:36:42.252Z,5.40
2023-05-09T01:36:54.445Z,5.40
2023-05-09T01:37:05.275Z,5.30
2023-05-09T01:37:15.976Z,5.30
2023-05-09T01:37:26.683Z,5.40
2023-05-09T01:37:37.504Z,5.60
2023-05-09T01:37:48.211Z,5.30
2023-05-09T01:37:58.902Z,5.30
2023-05-09T01:38:10.641Z,5.30
2023-05-09T01:38:22.373Z,5.30
2023-05-09T01:38:34.886Z,5.00
2023-05-09T01:38:45.609Z,5.10
2023-05-09T01:38:56.316Z,5.00
2023-05-09T01:39:07.018Z,5.20
2023-05-09T01:39:17.758Z,5.20
2023-05-09T01:39:29.960Z,5.30
2023-05-09T01:39:43.401Z,5.40
2023-05-09T01:39:54.092Z,5.40
2023-05-09T01:40:04.862Z,5.20
2023-05-09T01:40:18.502Z,5.10
2023-05-09T01:40:30.281Z,5.10
2023-05-09T01:40:41.029Z,5.20
2023-05-09T01:40:51.802Z,5.10
2023-05-09T01:41:02.497Z,5.40
2023-05-09T01:41:14.908Z,5.50
2023-05-09T01:41:26.588Z,5.30
2023-05-09T01:41:37.278Z,5.20
2023-05-09T01:41:48.943Z,4.90
2023-05-09T01:42:01.139Z,4.90
2023-05-09T01:42:13.316Z,4.70
2023-05-09T01:42:25.488Z,4.70
2023-05-09T01:42:36.224Z,4.90
2023-05-09T01:42:48.636Z,5.20
2023-05-09T01:42:59.327Z,5.50
2023-05-09T01:43:11.742Z,5.40
2023-05-09T01:43:24.926Z,5.40
2023-05-09T01:43:35.714Z,5.30
2023-05-09T01:43:47.204Z,5.10
2023-05-09T01:43:57.904Z,5.20
2023-05-09T01:44:08.646Z,5.10
2023-05-09T01:44:19.312Z,5.10
2023-05-09T01:44:32.216Z,4.80
2023-05-09T01:44:42.950Z,4.70
2023-05-09T01:44:55.132Z,4.80
2023-05-09T01:45:06.905Z,5.00
2023-05-09T01:45:17.869Z,5.30
2023-05-09T01:45:30.292Z,5.50
2023-05-09T01:45:42.726Z,5.10
2023-05-09T01:45:54.414Z,5.20
2023-05-09T01:46:06.136Z,5.70
2023-05-09T01:46:16.832Z,5.50
2023-05-09T01:46:29.300Z,5.20
2023-05-09T01:46:40.004Z,4.90
2023-05-09T01:46:50.787Z,4.90
2023-05-09T01:47:01.508Z,5.00
2023-05-09T01:47:13.983Z,4.80
2023-05-09T01:47:26.408Z,5.10
2023-05-09T01:47:40.081Z,4.80
2023-05-09T01:47:52.533Z,4.80
2023-05-09T01:48:05.211Z,4.90
2023-05-09T01:48:15.920Z,5.00
2023-05-09T01:48:27.632Z,5.00
2023-05-09T01:48:39.294Z,5.20
2023-05-09T01:48:51.700Z,5.50
2023-05-09T01:49:02.429Z,5.70
2023-05-09T01:49:14.140Z,5.30
2023-05-09T01:49:24.862Z,5.00
2023-05-09T01:49:37.272Z,5.00
2023-05-09T01:49:49.723Z,5.20
2023-05-09T01:50:01.468Z,5.40
2023-05-09T01:50:13.399Z,5.20
2023-05-09T01:50:25.116Z,5.40
2023-05-09T01:50:36.858Z,5.20
2023-05-09T01:50:47.588Z,5.10
2023-05-09T01:51:00.001Z,4.80
2023-05-09T01:51:12.429Z,5.10
2023-05-09T01:51:24.861Z,5.30
2023-05-09T01:51:35.574Z,5.30
2023-05-09T01:51:47.295Z,5.00
2023-05-09T01:51:58.997Z,4.90
2023-05-09T01:52:10.678Z,5.40
2023-05-09T01:52:21.394Z,5.40
2023-05-09T01:52:32.125Z,5.30
2023-05-09T01:52:44.325Z,5.10
2023-05-09T01:52:55.044Z,5.20
2023-05-09T01:53:06.804Z,5.00
2023-05-09T01:53:18.511Z,5.30
2023-05-09T01:53:29.265Z,5.30
2023-05-09T01:53:42.440Z,5.50
2023-05-09T01:53:54.643Z,5.10
2023-05-09T01:54:05.323Z,5.20
2023-05-09T01:54:16.983Z,5.20
2023-05-09T01:54:28.672Z,5.30
2023-05-09T01:54:40.430Z,5.50
2023-05-09T01:54:51.179Z,5.40
2023-05-09T01:55:03.351Z,5.10
2023-05-09T01:55:15.922Z,5.10
2023-05-09T01:55:28.449Z,5.40
2023-05-09T01:55:40.224Z,5.30
2023-05-09T01:55:51.054Z,5.50
2023-05-09T01:56:04.803Z,5.60
2023-05-09T01:56:16.446Z,5.40
2023-05-09T01:56:28.160Z,5.10
2023-05-09T01:56:39.853Z,5.30
2023-05-09T01:56:50.551Z,5.30
2023-05-09T01:57:03.020Z,5.20
2023-05-09T01:57:15.400Z,5.10
2023-05-09T01:57:27.376Z,4.70
2023-05-09T01:57:38.135Z,5.00
2023-05-09T01:57:52.263Z,5.00
2023-05-09T01:58:04.979Z,5.20
2023-05-09T01:58:17.915Z,5.70
2023-05-09T01:58:28.651Z,5.50
2023-05-09T01:58:41.113Z,5.50
2023-05-09T01:58:51.857Z,5.10
2023-05-09T01:59:03.542Z,5.10
2023-05-09T01:59:14.231Z,5.00
2023-05-09T01:59:24.949Z,5.30
2023-05-09T01:59:37.366Z,5.20
2023-05-09T01:59:49.064Z,5.50
2023-05-09T02:00:00.826Z,5.60
2023-05-09T02:00:12.475Z,5.60
2023-05-09T02:00:23.261Z,5.20
2023-05-09T02:00:34.083Z,5.30
2023-05-09T02:00:46.228Z,5.20
2023-05-09T02:00:57.064Z,5.00
2023-05-09T02:01:07.840Z,5.30
2023-05-09T02:01:18.588Z,5.00
2023-05-09T02:01:29.329Z,5.30
2023-05-09T02:01:41.032Z,5.10
2023-05-09T02:01:51.793Z,5.20
2023-05-09T02:02:03.538Z,5.30
2023-05-09T02:02:15.244Z,5.20
2023-05-09T02:02:27.023Z,5.50
2023-05-09T02:02:38.831Z,5.50
2023-05-09T02:02:49.631Z,5.50
2023-05-09T02:03:02.360Z,5.70
2023-05-09T02:03:14.803Z,5.60
2023-05-09T02:03:27.259Z,5.40
2023-05-09T02:03:40.424Z,5.40
2023-05-09T02:03:52.882Z,5.50
2023-05-09T02:04:04.540Z,5.80
2023-05-09T02:04:15.286Z,5.90
2023-05-09T02:04:26.991Z,5.60
2023-05-09T02:04:38.648Z,5.20
2023-05-09T02:04:49.360Z,5.30
2023-05-09T02:05:01.072Z,5.30
2023-05-09T02:05:11.986Z,5.50
2023-05-09T02:05:24.804Z,5.60
2023-05-09T02:05:37.989Z,5.60
2023-05-09T02:05:49.724Z,5.30
2023-05-09T02:06:01.454Z,5.50
2023-05-09T02:06:12.156Z,5.40
2023-05-09T02:06:24.565Z,5.30
2023-05-09T02:06:38.251Z,5.90
2023-05-09T02:06:48.971Z,6.30
2023-05-09T02:07:01.394Z,5.60
2023-05-09T02:07:13.090Z,5.40
2023-05-09T02:07:24.742Z,5.30
2023-05-09T02:07:36.449Z,5.40
2023-05-09T02:07:47.176Z,5.60
2023-05-09T02:07:58.884Z,5.10
2023-05-09T02:08:09.592Z,5.10
2023-05-09T02:08:21.800Z,5.10
2023-05-09T02:08:32.598Z,5.30
2023-05-09T02:08:43.338Z,5.50
2023-05-09T02:08:55.568Z,5.60
2023-05-09T02:09:06.305Z,5.60
2023-05-09T02:09:17.062Z,5.30
2023-05-09T02:09:27.793Z,5.30
2023-05-09T02:09:39.747Z,5.30
2023-05-09T02:09:52.219Z,5.70
2023-05-09T02:10:03.942Z,5.60
2023-05-09T02:10:14.703Z,5.40
2023-05-09T02:10:27.131Z,5.50
2023-05-09T02:10:37.864Z,4.80
2023-05-09T02:10:48.599Z,5.20
2023-05-09T02:11:00.259Z,5.50
2023-05-09T02:11:11.924Z,5.70
2023-05-09T02:11:25.655Z,6.10
2023-05-09T02:11:38.528Z,6.00
2023-05-09T02:11:51.700Z,5.40
2023-05-09T02:12:04.604Z,5.60
2023-05-09T02:12:15.329Z,5.50
2023-05-09T02:12:27.236Z,5.50
2023-05-09T02:12:37.953Z,5.70
2023-05-09T02:12:49.661Z,5.50
2023-05-09T02:13:00.448Z,5.40
2023-05-09T02:13:13.154Z,5.10
2023-05-09T02:13:24.921Z,5.00
2023-05-09T02:13:35.634Z,5.30
2023-05-09T02:13:47.333Z,5.40
2023-05-09T02:13:58.055Z,5.30
2023-05-09T02:14:09.745Z,5.00
2023-05-09T02:14:22.136Z,4.90
2023-05-09T02:14:32.826Z,4.80
2023-05-09T02:14:43.576Z,5.10
2023-05-09T02:14:54.283Z,5.30
2023-05-09T02:15:05.938Z,5.40
2023-05-09T02:15:18.360Z,5.10
2023-05-09T02:15:30.777Z,5.00
2023-05-09T02:15:43.971Z,5.20
2023-05-09T02:15:56.407Z,5.00
2023-05-09T02:16:08.625Z,5.00
2023-05-09T02:16:21.127Z,5.00
2023-05-09T02:16:33.700Z,5.70
2023-05-09T02:16:45.472Z,5.70
2023-05-09T02:16:57.757Z,5.30
2023-05-09T02:17:10.315Z,5.10
2023-05-09T02:17:21.022Z,5.30
2023-05-09T02:17:31.788Z,5.60
2023-05-09T02:17:42.534Z,5.90
2023-05-09T02:17:55.717Z,5.30
2023-05-09T02:18:06.430Z,5.50
2023-05-09T02:18:18.803Z,5.50
2023-05-09T02:18:32.525Z,5.50
2023-05-09T02:18:43.258Z,5.00
2023-05-09T02:18:56.992Z,4.80
2023-05-09T02:19:07.727Z,4.90
2023-05-09T02:19:18.447Z,5.00
2023-05-09T02:19:29.235Z,5.40
2023-05-09T02:19:41.619Z,5.50
2023-05-09T02:19:53.618Z,5.30
2023-05-09T02:20:04.317Z,5.50
2023-05-09T02:20:15.027Z,5.30
2023-05-09T02:20:25.726Z,5.30
2023-05-09T02:20:38.169Z,5.10
2023-05-09T02:20:49.975Z,4.80
2023-05-09T02:21:02.445Z,4.70
2023-05-09T02:21:14.909Z,5.10
2023-05-09T02:21:29.141Z,5.40
2023-05-09T02:21:40.968Z,5.10
2023-05-09T02:21:53.183Z,4.90
2023-05-09T02:22:03.979Z,5.50
2023-05-09T02:22:14.791Z,5.30
2023-05-09T02:22:25.480Z,5.50
2023-05-09T02:22:37.170Z,5.30
2023-05-09T02:22:47.886Z,5.50
2023-05-09T02:22:59.554Z,5.40
2023-05-09T02:23:11.965Z,5.30
2023-05-09T02:23:23.644Z,5.30
2023-05-09T02:23:34.352Z,5.20
2023-05-09T02:23:46.776Z,5.10
2023-05-09T02:23:58.439Z,5.00
2023-05-09T02:24:10.105Z,4.80
2023-05-09T02:24:20.861Z,5.00
2023-05-09T02:24:33.241Z,5.30
2023-05-09T02:24:45.644Z,5.50
2023-05-09T02:24:56.396Z,5.10
2023-05-09T02:25:07.106Z,5.30
2023-05-09T02:25:18.786Z,5.50
2023-05-09T02:25:30.518Z,5.60
2023-05-09T02:25:41.216Z,5.70
2023-05-09T02:25:53.419Z,5.90
2023-05-09T02:26:06.660Z,5.80
2023-05-09T02:26:19.069Z,5.70
2023-05-09T02:26:29.799Z,5.70
2023-05-09T02:26:42.204Z,5.90
2023-05-09T02:26:52.981Z,5.70
2023-05-09T02:27:04.736Z,6.00
2023-05-09T02:27:15.443Z,5.70
2023-05-09T02:27:26.205Z,5.20
2023-05-09T02:27:38.595Z,5.40
2023-05-09T02:27:49.307Z,5.20
2023-05-09T02:28:01.026Z,5.40
2023-05-09T02:28:13.433Z,5.60
2023-05-09T02:28:24.152Z,6.10
2023-05-09T02:28:34.848Z,6.30
2023-05-09T02:28:45.567Z,6.00
2023-05-09T02:28:57.269Z,5.10
2023-05-09T02:29:07.992Z,4.80
2023-05-09T02:29:19.723Z,5.10
2023-05-09T02:29:30.430Z,5.30
2023-05-09T02:29:43.626Z,5.50
2023-05-09T02:29:54.348Z,5.30
2023-05-09T02:30:05.052Z,5.60
2023-05-09T02:30:17.517Z,5.40
2023-05-09T02:30:29.975Z,5.20
2023-05-09T02:30:41.662Z,5.40
2023-05-09T02:30:53.336Z,5.40
2023-05-09T02:31:04.118Z,5.20
2023-05-09T02:31:16.538Z,5.20
2023-05-09T02:31:27.288Z,5.40
2023-05-09T02:31:39.022Z,5.60
2023-05-09T02:31:51.413Z,5.00
2023-05-09T02:32:03.233Z,5.30
2023-05-09T02:32:15.832Z,5.80
2023-05-09T02:32:27.595Z,6.20
2023-05-09T02:32:38.315Z,5.90
2023-05-09T02:32:50.810Z,5.50
2023-05-09T02:33:03.236Z,5.80
2023-05-09T02:33:14.898Z,5.70
2023-05-09T02:33:26.578Z,5.40
2023-05-09T02:33:39.028Z,5.30
2023-05-09T02:33:49.755Z,5.60
2023-05-09T02:34:02.973Z,5.40
2023-05-09T02:34:14.688Z,5.50
2023-05-09T02:34:26.375Z,5.70
2023-05-09T02:34:38.073Z,5.30